sensor_id;sensor_type;location;lat;lon;timestamp;temperature;humidity
23827;DHT22;12094;50.822;4.376;2022-10-16T00:01:41;14.40;99.90
23827;DHT22;12094;50.822;4.376;2022-10-16T00:04:09;14.40;99.90
23827;DHT22;12094;50.822;4.376;2022-10-16T00:06:37;14.40;99.90
23827;DHT22;12094;50.822;4.376;2022-10-16T00:09:06;14.40;99.90
23827;DHT22;12094;50.822;4.376;2022-10-16T00:11:38;14.40;99.90
23827;DHT22;12094;50.822;4.376;2022-10-16T00:14:12;14.40;99.90
23827;DHT22;12094;50.822;4.376;2022-10-16T00:16:42;14.40;99.90
23827;DHT22;12094;50.822;4.376;2022-10-16T00:19:11;14.40;99.90
23827;DHT22;12094;50.822;4.376;2022-10-16T00:21:40;14.40;99.90
23827;DHT22;12094;50.822;4.376;2022-10-16T00:24:12;14.40;99.90
23827;DHT22;12094;50.822;4.376;2022-10-16T00:26:40;14.40;99.90
23827;DHT22;12094;50.822;4.376;2022-10-16T00:29:09;14.40;99.90
23827;DHT22;12094;50.822;4.376;2022-10-16T00:31:38;14.40;99.90
23827;DHT22;12094;50.822;4.376;2022-10-16T00:34:07;14.40;99.90
23827;DHT22;12094;50.822;4.376;2022-10-16T00:36:35;14.40;99.90
23827;DHT22;12094;50.822;4.376;2022-10-16T00:39:03;14.40;99.90
23827;DHT22;12094;50.822;4.376;2022-10-16T00:41:33;14.40;99.90
23827;DHT22;12094;50.822;4.376;2022-10-16T00:44:04;14.40;99.90
23827;DHT22;12094;50.822;4.376;2022-10-16T00:46:52;14.40;99.90
23827;DHT22;12094;50.822;4.376;2022-10-16T00:49:35;14.40;99.90
23827;DHT22;12094;50.822;4.376;2022-10-16T00:52:06;14.40;99.90
23827;DHT22;12094;50.822;4.376;2022-10-16T00:54:33;14.30;99.90
23827;DHT22;12094;50.822;4.376;2022-10-16T00:57:05;14.30;99.90
23827;DHT22;12094;50.822;4.376;2022-10-16T00:59:40;14.20;99.90
23827;DHT22;12094;50.822;4.376;2022-10-16T01:02:11;14.20;99.90
23827;DHT22;12094;50.822;4.376;2022-10-16T01:04:49;14.10;99.90
23827;DHT22;12094;50.822;4.376;2022-10-16T01:10:38;14.00;99.90
23827;DHT22;12094;50.822;4.376;2022-10-16T01:13:07;14.00;99.90
23827;DHT22;12094;50.822;4.376;2022-10-16T01:18:35;14.10;99.90
23827;DHT22;12094;50.822;4.376;2022-10-16T01:21:07;14.10;99.90
23827;DHT22;12094;50.822;4.376;2022-10-16T01:23:53;14.10;99.90
23827;DHT22;12094;50.822;4.376;2022-10-16T01:26:45;14.10;99.90
23827;DHT22;12094;50.822;4.376;2022-10-16T01:29:33;14.10;99.90
23827;DHT22;12094;50.822;4.376;2022-10-16T01:35:17;14.10;99.90
23827;DHT22;12094;50.822;4.376;2022-10-16T01:40:19;14.00;99.90
23827;DHT22;12094;50.822;4.376;2022-10-16T01:42:52;14.00;99.90
23827;DHT22;12094;50.822;4.376;2022-10-16T01:45:21;14.00;99.90
23827;DHT22;12094;50.822;4.376;2022-10-16T01:47:52;13.90;99.90
23827;DHT22;12094;50.822;4.376;2022-10-16T01:50:20;13.90;99.90
23827;DHT22;12094;50.822;4.376;2022-10-16T01:52:52;13.90;99.90
23827;DHT22;12094;50.822;4.376;2022-10-16T01:55:31;13.90;99.90
23827;DHT22;12094;50.822;4.376;2022-10-16T01:58:02;13.90;99.90
23827;DHT22;12094;50.822;4.376;2022-10-16T02:00:32;13.90;99.90
23827;DHT22;12094;50.822;4.376;2022-10-16T02:03:01;13.90;99.90
23827;DHT22;12094;50.822;4.376;2022-10-16T02:05:50;13.90;99.90
23827;DHT22;12094;50.822;4.376;2022-10-16T02:08:21;13.80;99.90
23827;DHT22;12094;50.822;4.376;2022-10-16T02:10:50;13.80;99.90
23827;DHT22;12094;50.822;4.376;2022-10-16T02:13:23;13.90;99.90
23827;DHT22;12094;50.822;4.376;2022-10-16T02:15:54;13.80;99.90
23827;DHT22;12094;50.822;4.376;2022-10-16T02:18:24;13.80;99.90
23827;DHT22;12094;50.822;4.376;2022-10-16T02:29:14;13.80;99.90
23827;DHT22;12094;50.822;4.376;2022-10-16T02:31:46;13.80;99.90
23827;DHT22;12094;50.822;4.376;2022-10-16T02:34:16;13.80;99.90
23827;DHT22;12094;50.822;4.376;2022-10-16T02:36:46;13.80;99.90
23827;DHT22;12094;50.822;4.376;2022-10-16T02:39:15;13.90;99.90
23827;DHT22;12094;50.822;4.376;2022-10-16T02:42:17;13.80;99.90
23827;DHT22;12094;50.822;4.376;2022-10-16T02:44:44;13.90;99.90
23827;DHT22;12094;50.822;4.376;2022-10-16T02:47:11;13.90;99.90
23827;DHT22;12094;50.822;4.376;2022-10-16T02:49:40;13.90;99.90
23827;DHT22;12094;50.822;4.376;2022-10-16T02:52:13;13.90;99.90
23827;DHT22;12094;50.822;4.376;2022-10-16T02:54:41;13.90;99.90
23827;DHT22;12094;50.822;4.376;2022-10-16T02:57:08;13.90;99.90
23827;DHT22;12094;50.822;4.376;2022-10-16T02:59:35;13.80;99.90
23827;DHT22;12094;50.822;4.376;2022-10-16T03:02:02;13.80;99.90
23827;DHT22;12094;50.822;4.376;2022-10-16T03:04:29;13.80;99.90
23827;DHT22;12094;50.822;4.376;2022-10-16T03:06:59;13.80;99.90
23827;DHT22;12094;50.822;4.376;2022-10-16T03:09:26;13.80;99.90
23827;DHT22;12094;50.822;4.376;2022-10-16T03:11:55;13.80;99.90
23827;DHT22;12094;50.822;4.376;2022-10-16T03:14:25;13.80;99.90
23827;DHT22;12094;50.822;4.376;2022-10-16T03:16:55;13.80;99.90
23827;DHT22;12094;50.822;4.376;2022-10-16T03:19:23;13.90;99.90
23827;DHT22;12094;50.822;4.376;2022-10-16T03:21:53;13.80;99.90
23827;DHT22;12094;50.822;4.376;2022-10-16T03:24:20;13.80;99.90
23827;DHT22;12094;50.822;4.376;2022-10-16T03:26:47;13.80;99.90
23827;DHT22;12094;50.822;4.376;2022-10-16T03:29:15;13.80;99.90
23827;DHT22;12094;50.822;4.376;2022-10-16T03:31:44;13.80;99.90
23827;DHT22;12094;50.822;4.376;2022-10-16T03:34:11;13.80;99.90
23827;DHT22;12094;50.822;4.376;2022-10-16T03:36:38;13.80;99.90
23827;DHT22;12094;50.822;4.376;2022-10-16T03:39:05;13.80;99.90
23827;DHT22;12094;50.822;4.376;2022-10-16T03:41:34;13.80;99.90
23827;DHT22;12094;50.822;4.376;2022-10-16T03:44:05;13.80;99.90
23827;DHT22;12094;50.822;4.376;2022-10-16T03:46:33;13.80;99.90
23827;DHT22;12094;50.822;4.376;2022-10-16T03:49:03;13.80;99.90
23827;DHT22;12094;50.822;4.376;2022-10-16T03:51:37;13.70;99.90
23827;DHT22;12094;50.822;4.376;2022-10-16T03:54:04;13.70;99.90
23827;DHT22;12094;50.822;4.376;2022-10-16T03:56:31;13.80;99.90
23827;DHT22;12094;50.822;4.376;2022-10-16T03:58:58;13.80;99.90
23827;DHT22;12094;50.822;4.376;2022-10-16T04:01:25;13.80;99.90
23827;DHT22;12094;50.822;4.376;2022-10-16T04:03:55;13.90;99.90
23827;DHT22;12094;50.822;4.376;2022-10-16T04:06:25;13.90;99.90
23827;DHT22;12094;50.822;4.376;2022-10-16T04:08:53;13.80;99.90
23827;DHT22;12094;50.822;4.376;2022-10-16T04:11:24;13.80;99.90
23827;DHT22;12094;50.822;4.376;2022-10-16T04:13:55;13.80;99.90
23827;DHT22;12094;50.822;4.376;2022-10-16T04:16:25;13.80;99.90
23827;DHT22;12094;50.822;4.376;2022-10-16T04:18:57;13.80;99.90
23827;DHT22;12094;50.822;4.376;2022-10-16T04:21:26;13.70;99.90
23827;DHT22;12094;50.822;4.376;2022-10-16T04:23:54;13.70;99.90
23827;DHT22;12094;50.822;4.376;2022-10-16T04:26:23;13.80;99.90
23827;DHT22;12094;50.822;4.376;2022-10-16T04:28:53;13.80;99.90
23827;DHT22;12094;50.822;4.376;2022-10-16T04:31:22;13.80;99.90
23827;DHT22;12094;50.822;4.376;2022-10-16T04:33:52;13.80;99.90
23827;DHT22;12094;50.822;4.376;2022-10-16T04:36:20;13.80;99.90
23827;DHT22;12094;50.822;4.376;2022-10-16T04:38:55;13.70;99.90
23827;DHT22;12094;50.822;4.376;2022-10-16T04:41:25;13.80;99.90
23827;DHT22;12094;50.822;4.376;2022-10-16T04:43:53;13.80;99.90
23827;DHT22;12094;50.822;4.376;2022-10-16T04:46:22;13.80;99.90
23827;DHT22;12094;50.822;4.376;2022-10-16T04:48:50;13.70;99.90
23827;DHT22;12094;50.822;4.376;2022-10-16T04:51:18;13.80;99.90
23827;DHT22;12094;50.822;4.376;2022-10-16T04:53:48;13.70;99.90
23827;DHT22;12094;50.822;4.376;2022-10-16T04:56:15;13.70;99.90
23827;DHT22;12094;50.822;4.376;2022-10-16T04:58:43;13.70;99.90
23827;DHT22;12094;50.822;4.376;2022-10-16T05:01:11;13.70;99.90
23827;DHT22;12094;50.822;4.376;2022-10-16T05:03:41;13.70;99.90
23827;DHT22;12094;50.822;4.376;2022-10-16T05:06:09;13.70;99.90
23827;DHT22;12094;50.822;4.376;2022-10-16T05:08:39;13.70;99.90
23827;DHT22;12094;50.822;4.376;2022-10-16T05:11:09;13.70;99.90
23827;DHT22;12094;50.822;4.376;2022-10-16T05:13:37;13.70;99.90
23827;DHT22;12094;50.822;4.376;2022-10-16T05:16:05;13.80;99.90
23827;DHT22;12094;50.822;4.376;2022-10-16T05:18:38;13.70;99.90
23827;DHT22;12094;50.822;4.376;2022-10-16T05:21:08;13.70;99.90
23827;DHT22;12094;50.822;4.376;2022-10-16T05:23:41;13.70;99.90
23827;DHT22;12094;50.822;4.376;2022-10-16T05:26:08;13.70;99.90
23827;DHT22;12094;50.822;4.376;2022-10-16T05:28:37;13.70;99.90
23827;DHT22;12094;50.822;4.376;2022-10-16T05:31:09;13.80;99.90
23827;DHT22;12094;50.822;4.376;2022-10-16T05:33:36;13.70;99.90
23827;DHT22;12094;50.822;4.376;2022-10-16T05:36:04;13.70;99.90
23827;DHT22;12094;50.822;4.376;2022-10-16T05:38:33;13.60;99.90
23827;DHT22;12094;50.822;4.376;2022-10-16T05:41:00;13.60;99.90
23827;DHT22;12094;50.822;4.376;2022-10-16T05:43:29;13.60;99.90
23827;DHT22;12094;50.822;4.376;2022-10-16T05:46:01;13.60;99.90
23827;DHT22;12094;50.822;4.376;2022-10-16T05:48:29;13.60;99.90
23827;DHT22;12094;50.822;4.376;2022-10-16T05:51:02;13.60;99.90
23827;DHT22;12094;50.822;4.376;2022-10-16T05:53:33;13.60;99.90
23827;DHT22;12094;50.822;4.376;2022-10-16T05:56:01;13.60;99.90
23827;DHT22;12094;50.822;4.376;2022-10-16T05:58:31;13.60;99.90
23827;DHT22;12094;50.822;4.376;2022-10-16T06:01:05;13.60;99.90
23827;DHT22;12094;50.822;4.376;2022-10-16T06:03:36;13.60;99.90
23827;DHT22;12094;50.822;4.376;2022-10-16T06:06:13;13.60;99.90
23827;DHT22;12094;50.822;4.376;2022-10-16T06:08:47;13.60;99.90
23827;DHT22;12094;50.822;4.376;2022-10-16T06:11:19;13.50;99.90
23827;DHT22;12094;50.822;4.376;2022-10-16T06:13:54;13.50;99.90
23827;DHT22;12094;50.822;4.376;2022-10-16T06:16:27;13.50;99.90
23827;DHT22;12094;50.822;4.376;2022-10-16T06:18:59;13.60;99.90
23827;DHT22;12094;50.822;4.376;2022-10-16T06:21:27;13.60;99.90
23827;DHT22;12094;50.822;4.376;2022-10-16T06:23:58;13.60;99.90
23827;DHT22;12094;50.822;4.376;2022-10-16T06:26:28;13.70;99.90
23827;DHT22;12094;50.822;4.376;2022-10-16T06:28:58;13.60;99.90
23827;DHT22;12094;50.822;4.376;2022-10-16T06:31:27;13.60;99.90
23827;DHT22;12094;50.822;4.376;2022-10-16T06:33:58;13.60;99.90
23827;DHT22;12094;50.822;4.376;2022-10-16T06:36:26;13.60;99.90
23827;DHT22;12094;50.822;4.376;2022-10-16T06:38:53;13.70;99.90
23827;DHT22;12094;50.822;4.376;2022-10-16T06:41:22;13.70;99.90
23827;DHT22;12094;50.822;4.376;2022-10-16T06:43:50;13.70;99.90
23827;DHT22;12094;50.822;4.376;2022-10-16T06:46:19;13.80;99.90
23827;DHT22;12094;50.822;4.376;2022-10-16T06:48:46;13.80;99.90
23827;DHT22;12094;50.822;4.376;2022-10-16T06:51:17;13.80;99.90
23827;DHT22;12094;50.822;4.376;2022-10-16T06:53:51;13.90;99.90
23827;DHT22;12094;50.822;4.376;2022-10-16T06:56:36;13.90;99.90
23827;DHT22;12094;50.822;4.376;2022-10-16T06:59:05;14.00;99.90
23827;DHT22;12094;50.822;4.376;2022-10-16T07:01:32;14.00;99.90
23827;DHT22;12094;50.822;4.376;2022-10-16T07:04:02;14.00;99.90
23827;DHT22;12094;50.822;4.376;2022-10-16T07:06:32;14.00;99.90
23827;DHT22;12094;50.822;4.376;2022-10-16T07:09:04;14.00;99.90
23827;DHT22;12094;50.822;4.376;2022-10-16T07:11:33;14.00;99.90
23827;DHT22;12094;50.822;4.376;2022-10-16T07:14:00;14.10;99.90
23827;DHT22;12094;50.822;4.376;2022-10-16T07:16:29;14.00;99.90
23827;DHT22;12094;50.822;4.376;2022-10-16T07:19:00;14.10;99.90
23827;DHT22;12094;50.822;4.376;2022-10-16T07:21:33;14.20;99.90
23827;DHT22;12094;50.822;4.376;2022-10-16T07:24:09;14.20;99.90
23827;DHT22;12094;50.822;4.376;2022-10-16T07:26:41;14.20;99.90
23827;DHT22;12094;50.822;4.376;2022-10-16T07:29:18;14.20;99.90
23827;DHT22;12094;50.822;4.376;2022-10-16T07:31:49;14.20;99.90
23827;DHT22;12094;50.822;4.376;2022-10-16T07:34:18;14.20;99.90
23827;DHT22;12094;50.822;4.376;2022-10-16T07:36:51;14.20;99.90
23827;DHT22;12094;50.822;4.376;2022-10-16T07:39:18;14.20;99.90
23827;DHT22;12094;50.822;4.376;2022-10-16T07:41:46;14.30;99.90
23827;DHT22;12094;50.822;4.376;2022-10-16T07:44:15;14.20;99.90
23827;DHT22;12094;50.822;4.376;2022-10-16T07:46:42;14.20;99.90
23827;DHT22;12094;50.822;4.376;2022-10-16T07:49:10;14.20;99.90
23827;DHT22;12094;50.822;4.376;2022-10-16T07:51:37;14.40;99.90
23827;DHT22;12094;50.822;4.376;2022-10-16T07:54:11;14.40;99.90
23827;DHT22;12094;50.822;4.376;2022-10-16T07:56:38;14.50;99.90
23827;DHT22;12094;50.822;4.376;2022-10-16T07:59:10;14.50;99.90
23827;DHT22;12094;50.822;4.376;2022-10-16T08:01:37;14.50;99.90
23827;DHT22;12094;50.822;4.376;2022-10-16T08:04:07;14.60;99.90
23827;DHT22;12094;50.822;4.376;2022-10-16T08:06:37;14.70;99.90
23827;DHT22;12094;50.822;4.376;2022-10-16T08:09:05;14.70;99.90
23827;DHT22;12094;50.822;4.376;2022-10-16T08:11:33;14.80;99.90
23827;DHT22;12094;50.822;4.376;2022-10-16T08:14:02;14.90;99.90
23827;DHT22;12094;50.822;4.376;2022-10-16T08:16:29;14.80;99.90
23827;DHT22;12094;50.822;4.376;2022-10-16T08:18:57;14.90;99.90
23827;DHT22;12094;50.822;4.376;2022-10-16T08:21:24;15.00;99.90
23827;DHT22;12094;50.822;4.376;2022-10-16T08:23:53;14.90;99.90
23827;DHT22;12094;50.822;4.376;2022-10-16T08:26:27;15.00;99.90
23827;DHT22;12094;50.822;4.376;2022-10-16T08:28:56;15.00;99.90
23827;DHT22;12094;50.822;4.376;2022-10-16T08:31:26;15.00;99.90
23827;DHT22;12094;50.822;4.376;2022-10-16T08:33:54;15.10;99.90
23827;DHT22;12094;50.822;4.376;2022-10-16T08:36:21;15.10;99.90
23827;DHT22;12094;50.822;4.376;2022-10-16T08:38:50;15.20;99.90
23827;DHT22;12094;50.822;4.376;2022-10-16T08:41:53;15.20;99.90
23827;DHT22;12094;50.822;4.376;2022-10-16T08:47:24;15.20;99.90
23827;DHT22;12094;50.822;4.376;2022-10-16T08:49:55;15.40;99.90
23827;DHT22;12094;50.822;4.376;2022-10-16T08:52:25;15.40;99.90
23827;DHT22;12094;50.822;4.376;2022-10-16T08:54:56;15.40;99.90
23827;DHT22;12094;50.822;4.376;2022-10-16T08:57:25;15.40;99.90
23827;DHT22;12094;50.822;4.376;2022-10-16T08:59:57;15.50;99.90
23827;DHT22;12094;50.822;4.376;2022-10-16T09:10:54;16.00;99.90
23827;DHT22;12094;50.822;4.376;2022-10-16T09:13:28;16.10;99.90
23827;DHT22;12094;50.822;4.376;2022-10-16T09:19:15;16.00;99.90
23827;DHT22;12094;50.822;4.376;2022-10-16T09:21:47;15.90;99.90
23827;DHT22;12094;50.822;4.376;2022-10-16T09:24:18;16.10;99.90
23827;DHT22;12094;50.822;4.376;2022-10-16T09:26:46;16.20;99.90
23827;DHT22;12094;50.822;4.376;2022-10-16T09:29:16;16.10;99.90
23827;DHT22;12094;50.822;4.376;2022-10-16T09:31:45;16.20;99.90
23827;DHT22;12094;50.822;4.376;2022-10-16T09:34:33;16.30;99.90
23827;DHT22;12094;50.822;4.376;2022-10-16T09:37:04;16.40;99.90
23827;DHT22;12094;50.822;4.376;2022-10-16T09:44:50;16.70;99.90
23827;DHT22;12094;50.822;4.376;2022-10-16T09:47:21;16.80;99.90
23827;DHT22;12094;50.822;4.376;2022-10-16T09:49:56;17.00;99.90
23827;DHT22;12094;50.822;4.376;2022-10-16T09:52:26;16.90;99.90
23827;DHT22;12094;50.822;4.376;2022-10-16T09:55:03;16.80;99.90
23827;DHT22;12094;50.822;4.376;2022-10-16T09:58:02;16.90;99.90
23827;DHT22;12094;50.822;4.376;2022-10-16T10:00:31;17.00;99.90
23827;DHT22;12094;50.822;4.376;2022-10-16T10:03:10;17.00;99.90
23827;DHT22;12094;50.822;4.376;2022-10-16T10:05:39;17.10;99.90
23827;DHT22;12094;50.822;4.376;2022-10-16T10:08:14;17.10;99.90
23827;DHT22;12094;50.822;4.376;2022-10-16T10:10:48;17.20;99.90
23827;DHT22;12094;50.822;4.376;2022-10-16T10:13:19;17.20;99.90
23827;DHT22;12094;50.822;4.376;2022-10-16T10:15:48;17.30;99.90
23827;DHT22;12094;50.822;4.376;2022-10-16T10:18:18;17.30;99.90
23827;DHT22;12094;50.822;4.376;2022-10-16T10:20:58;17.40;99.90
23827;DHT22;12094;50.822;4.376;2022-10-16T10:23:27;17.40;99.90
23827;DHT22;12094;50.822;4.376;2022-10-16T10:26:08;17.60;99.90
23827;DHT22;12094;50.822;4.376;2022-10-16T10:46:02;19.00;99.90
23827;DHT22;12094;50.822;4.376;2022-10-16T10:49:09;19.60;99.90
23827;DHT22;12094;50.822;4.376;2022-10-16T11:03:34;22.30;99.90
23827;DHT22;12094;50.822;4.376;2022-10-16T11:06:07;23.00;99.90
23827;DHT22;12094;50.822;4.376;2022-10-16T11:08:48;23.20;99.90
23827;DHT22;12094;50.822;4.376;2022-10-16T11:11:29;23.30;99.90
23827;DHT22;12094;50.822;4.376;2022-10-16T11:14:19;23.50;99.90
23827;DHT22;12094;50.822;4.376;2022-10-16T11:25:02;21.80;99.90
23827;DHT22;12094;50.822;4.376;2022-10-16T11:30:30;22.50;99.90
23827;DHT22;12094;50.822;4.376;2022-10-16T11:35:46;22.80;99.90
23827;DHT22;12094;50.822;4.376;2022-10-16T11:41:01;23.10;99.90
23827;DHT22;12094;50.822;4.376;2022-10-16T11:43:38;23.80;99.90
23827;DHT22;12094;50.822;4.376;2022-10-16T11:46:17;24.50;99.90
23827;DHT22;12094;50.822;4.376;2022-10-16T11:49:02;23.30;99.90
23827;DHT22;12094;50.822;4.376;2022-10-16T11:52:17;23.00;99.90
23827;DHT22;12094;50.822;4.376;2022-10-16T11:54:47;22.90;99.90
23827;DHT22;12094;50.822;4.376;2022-10-16T11:57:24;21.90;99.90
23827;DHT22;12094;50.822;4.376;2022-10-16T12:00:02;21.30;99.90
23827;DHT22;12094;50.822;4.376;2022-10-16T12:05:50;20.70;99.90
23827;DHT22;12094;50.822;4.376;2022-10-16T12:08:20;20.30;99.90
23827;DHT22;12094;50.822;4.376;2022-10-16T12:10:48;20.10;99.90
23827;DHT22;12094;50.822;4.376;2022-10-16T12:18:44;20.10;99.90
23827;DHT22;12094;50.822;4.376;2022-10-16T12:21:17;19.80;99.90
23827;DHT22;12094;50.822;4.376;2022-10-16T12:23:51;19.60;99.90
23827;DHT22;12094;50.822;4.376;2022-10-16T12:26:29;19.40;99.90
23827;DHT22;12094;50.822;4.376;2022-10-16T12:31:59;19.50;99.90
23827;DHT22;12094;50.822;4.376;2022-10-16T12:34:44;20.00;99.90
23827;DHT22;12094;50.822;4.376;2022-10-16T12:37:27;20.00;99.90
23827;DHT22;12094;50.822;4.376;2022-10-16T12:39:55;20.10;99.90
23827;DHT22;12094;50.822;4.376;2022-10-16T12:42:33;20.30;99.90
23827;DHT22;12094;50.822;4.376;2022-10-16T12:45:01;19.90;99.90
23827;DHT22;12094;50.822;4.376;2022-10-16T12:49:59;19.50;99.90
23827;DHT22;12094;50.822;4.376;2022-10-16T12:52:37;19.60;99.90
23827;DHT22;12094;50.822;4.376;2022-10-16T12:55:16;19.60;99.90
23827;DHT22;12094;50.822;4.376;2022-10-16T13:06:32;19.30;99.90
23827;DHT22;12094;50.822;4.376;2022-10-16T13:12:04;19.50;99.90
23827;DHT22;12094;50.822;4.376;2022-10-16T13:15:11;19.60;99.90
23827;DHT22;12094;50.822;4.376;2022-10-16T13:23:32;19.80;99.90
23827;DHT22;12094;50.822;4.376;2022-10-16T13:28:50;19.90;99.90
23827;DHT22;12094;50.822;4.376;2022-10-16T13:31:21;19.80;99.90
23827;DHT22;12094;50.822;4.376;2022-10-16T13:33:57;19.80;99.90
23827;DHT22;12094;50.822;4.376;2022-10-16T13:36:29;19.90;99.90
23827;DHT22;12094;50.822;4.376;2022-10-16T13:39:13;20.10;99.90
23827;DHT22;12094;50.822;4.376;2022-10-16T13:41:43;20.30;99.90
23827;DHT22;12094;50.822;4.376;2022-10-16T13:44:17;20.40;99.90
23827;DHT22;12094;50.822;4.376;2022-10-16T13:46:47;20.20;99.90
23827;DHT22;12094;50.822;4.376;2022-10-16T13:49:24;20.10;99.90
23827;DHT22;12094;50.822;4.376;2022-10-16T13:51:59;19.80;99.90
23827;DHT22;12094;50.822;4.376;2022-10-16T13:54:28;19.60;99.90
23827;DHT22;12094;50.822;4.376;2022-10-16T13:57:07;19.60;99.90
23827;DHT22;12094;50.822;4.376;2022-10-16T13:59:54;19.70;99.90
23827;DHT22;12094;50.822;4.376;2022-10-16T14:02:36;19.70;99.90
23827;DHT22;12094;50.822;4.376;2022-10-16T14:05:08;19.70;99.90
23827;DHT22;12094;50.822;4.376;2022-10-16T14:07:38;19.80;99.90
23827;DHT22;12094;50.822;4.376;2022-10-16T14:10:28;19.80;99.90
23827;DHT22;12094;50.822;4.376;2022-10-16T14:13:01;19.90;99.90
23827;DHT22;12094;50.822;4.376;2022-10-16T14:15:30;19.80;99.90
23827;DHT22;12094;50.822;4.376;2022-10-16T14:17:59;19.60;99.90
23827;DHT22;12094;50.822;4.376;2022-10-16T14:20:29;19.60;99.90
23827;DHT22;12094;50.822;4.376;2022-10-16T14:23:23;19.60;99.90
23827;DHT22;12094;50.822;4.376;2022-10-16T14:28:37;19.80;99.90
23827;DHT22;12094;50.822;4.376;2022-10-16T14:33:51;20.00;99.90
23827;DHT22;12094;50.822;4.376;2022-10-16T14:36:18;19.90;99.90
23827;DHT22;12094;50.822;4.376;2022-10-16T14:39:17;19.80;99.90
23827;DHT22;12094;50.822;4.376;2022-10-16T14:41:49;19.80;99.90
23827;DHT22;12094;50.822;4.376;2022-10-16T14:44:18;19.80;99.90
23827;DHT22;12094;50.822;4.376;2022-10-16T14:46:46;19.80;99.90
23827;DHT22;12094;50.822;4.376;2022-10-16T14:49:19;19.80;99.90
23827;DHT22;12094;50.822;4.376;2022-10-16T14:51:47;19.90;99.90
23827;DHT22;12094;50.822;4.376;2022-10-16T14:54:16;20.00;99.90
23827;DHT22;12094;50.822;4.376;2022-10-16T14:56:58;20.10;99.90
23827;DHT22;12094;50.822;4.376;2022-10-16T14:59:36;20.20;99.90
23827;DHT22;12094;50.822;4.376;2022-10-16T15:02:32;20.20;99.90
23827;DHT22;12094;50.822;4.376;2022-10-16T15:05:13;19.90;99.90
23827;DHT22;12094;50.822;4.376;2022-10-16T15:07:41;19.70;99.90
23827;DHT22;12094;50.822;4.376;2022-10-16T15:10:11;19.70;99.90
23827;DHT22;12094;50.822;4.376;2022-10-16T15:12:38;19.80;99.90
23827;DHT22;12094;50.822;4.376;2022-10-16T15:17:43;19.90;99.90
23827;DHT22;12094;50.822;4.376;2022-10-16T15:20:11;19.90;99.90
23827;DHT22;12094;50.822;4.376;2022-10-16T15:22:38;19.70;99.90
23827;DHT22;12094;50.822;4.376;2022-10-16T15:25:39;19.60;99.90
23827;DHT22;12094;50.822;4.376;2022-10-16T15:28:10;19.50;99.90
23827;DHT22;12094;50.822;4.376;2022-10-16T15:30:38;19.60;99.90
23827;DHT22;12094;50.822;4.376;2022-10-16T15:33:09;19.80;99.90
23827;DHT22;12094;50.822;4.376;2022-10-16T15:35:37;19.80;99.90
23827;DHT22;12094;50.822;4.376;2022-10-16T15:38:04;19.80;99.90
23827;DHT22;12094;50.822;4.376;2022-10-16T15:40:32;19.60;99.90
23827;DHT22;12094;50.822;4.376;2022-10-16T15:42:59;19.40;99.90
23827;DHT22;12094;50.822;4.376;2022-10-16T15:45:26;19.30;99.90
23827;DHT22;12094;50.822;4.376;2022-10-16T15:47:55;19.30;99.90
23827;DHT22;12094;50.822;4.376;2022-10-16T15:50:22;19.40;99.90
23827;DHT22;12094;50.822;4.376;2022-10-16T15:52:50;19.40;99.90
23827;DHT22;12094;50.822;4.376;2022-10-16T15:55:19;19.60;99.90
23827;DHT22;12094;50.822;4.376;2022-10-16T15:57:47;19.40;99.90
23827;DHT22;12094;50.822;4.376;2022-10-16T16:00:17;19.30;99.90
23827;DHT22;12094;50.822;4.376;2022-10-16T16:02:50;19.30;99.90
23827;DHT22;12094;50.822;4.376;2022-10-16T16:05:18;19.10;99.90
23827;DHT22;12094;50.822;4.376;2022-10-16T16:07:45;19.00;99.90
23827;DHT22;12094;50.822;4.376;2022-10-16T16:10:13;18.90;99.90
23827;DHT22;12094;50.822;4.376;2022-10-16T16:12:40;18.90;99.90
23827;DHT22;12094;50.822;4.376;2022-10-16T16:15:08;18.90;99.90
23827;DHT22;12094;50.822;4.376;2022-10-16T16:17:35;18.80;99.90
23827;DHT22;12094;50.822;4.376;2022-10-16T16:20:04;18.70;99.90
23827;DHT22;12094;50.822;4.376;2022-10-16T16:22:31;18.90;99.90
23827;DHT22;12094;50.822;4.376;2022-10-16T16:25:00;18.80;99.90
23827;DHT22;12094;50.822;4.376;2022-10-16T16:27:31;18.70;99.90
23827;DHT22;12094;50.822;4.376;2022-10-16T16:30:07;18.70;99.90
23827;DHT22;12094;50.822;4.376;2022-10-16T16:32:36;18.60;99.90
23827;DHT22;12094;50.822;4.376;2022-10-16T16:35:03;18.60;99.90
23827;DHT22;12094;50.822;4.376;2022-10-16T16:37:32;18.70;99.90
23827;DHT22;12094;50.822;4.376;2022-10-16T16:39:59;18.80;99.90
23827;DHT22;12094;50.822;4.376;2022-10-16T16:42:26;18.70;99.90
23827;DHT22;12094;50.822;4.376;2022-10-16T16:44:55;18.80;99.90
23827;DHT22;12094;50.822;4.376;2022-10-16T16:47:22;18.80;99.90
23827;DHT22;12094;50.822;4.376;2022-10-16T16:49:49;18.80;99.90
23827;DHT22;12094;50.822;4.376;2022-10-16T16:52:16;18.80;99.90
23827;DHT22;12094;50.822;4.376;2022-10-16T16:54:43;18.70;99.90
23827;DHT22;12094;50.822;4.376;2022-10-16T16:57:11;18.70;99.90
23827;DHT22;12094;50.822;4.376;2022-10-16T16:59:38;18.60;99.90
23827;DHT22;12094;50.822;4.376;2022-10-16T17:02:05;18.70;99.90
23827;DHT22;12094;50.822;4.376;2022-10-16T17:04:32;18.40;99.90
23827;DHT22;12094;50.822;4.376;2022-10-16T17:07:01;18.30;99.90
23827;DHT22;12094;50.822;4.376;2022-10-16T17:09:32;18.00;99.90
23827;DHT22;12094;50.822;4.376;2022-10-16T17:12:00;17.70;99.90
23827;DHT22;12094;50.822;4.376;2022-10-16T17:14:28;17.60;99.90
23827;DHT22;12094;50.822;4.376;2022-10-16T17:16:55;17.60;99.90
23827;DHT22;12094;50.822;4.376;2022-10-16T17:19:23;17.50;99.90
23827;DHT22;12094;50.822;4.376;2022-10-16T17:21:51;17.30;99.90
23827;DHT22;12094;50.822;4.376;2022-10-16T17:24:21;17.30;99.90
23827;DHT22;12094;50.822;4.376;2022-10-16T17:26:51;17.20;99.90
23827;DHT22;12094;50.822;4.376;2022-10-16T17:29:18;17.20;99.90
23827;DHT22;12094;50.822;4.376;2022-10-16T17:31:47;17.20;99.90
23827;DHT22;12094;50.822;4.376;2022-10-16T17:34:19;17.10;99.90
23827;DHT22;12094;50.822;4.376;2022-10-16T17:36:47;17.10;99.90
23827;DHT22;12094;50.822;4.376;2022-10-16T17:39:15;17.10;99.90
23827;DHT22;12094;50.822;4.376;2022-10-16T17:41:50;17.10;99.90
23827;DHT22;12094;50.822;4.376;2022-10-16T17:44:20;17.10;99.90
23827;DHT22;12094;50.822;4.376;2022-10-16T17:46:52;17.00;99.90
23827;DHT22;12094;50.822;4.376;2022-10-16T17:49:21;17.10;99.90
23827;DHT22;12094;50.822;4.376;2022-10-16T17:51:52;17.00;99.90
23827;DHT22;12094;50.822;4.376;2022-10-16T17:54:20;17.10;99.90
23827;DHT22;12094;50.822;4.376;2022-10-16T17:56:48;17.10;99.90
23827;DHT22;12094;50.822;4.376;2022-10-16T17:59:15;17.10;99.90
23827;DHT22;12094;50.822;4.376;2022-10-16T18:01:44;17.10;99.90
23827;DHT22;12094;50.822;4.376;2022-10-16T18:04:16;17.10;99.90
23827;DHT22;12094;50.822;4.376;2022-10-16T18:06:44;17.10;99.90